Time;durP1;ratioP1;P1;durP2;ratioP2;P2;SDS_P1;SDS_P2;PMS_P1;PMS_P2;Temp;Humidity;BMP_temperature;BMP_pressure;BME280_temperature;BME280_humidity;BME280_pressure;Samples;Min_cycle;Max_cycle;Signal;HPM_P1;HPM_P2
2021/04/19 00:01:17;;;;;;;11.98;8.77;;;5.60;99.90;;;;;;6196027;28;20045;-79
2021/04/19 00:04:18;;;;;;;15.02;8.73;;;5.70;99.90;;;;;;6195887;28;20460;-79
2021/04/19 00:07:18;;;;;;;12.43;9.15;;;5.20;99.90;;;;;;6206083;28;20034;-78
2021/04/19 00:10:19;;;;;;;13.18;8.55;;;;;;;;;;6197127;28;20030;-79
2021/04/19 00:13:20;;;;;;;11.35;8.25;;;5.00;99.60;;;;;;6212258;28;20030;-79
2021/04/19 00:16:21;;;;;;;12.02;8.38;;;5.40;99.90;;;;;;6195310;28;20057;-79
2021/04/19 00:19:21;;;;;;;14.90;8.40;;;5.60;99.90;;;;;;6195618;28;20034;-79
2021/04/19 00:22:22;;;;;;;13.18;8.90;;;4.90;99.90;;;;;;6195327;28;20034;-81
2021/04/19 00:25:23;;;;;;;9.55;7.88;;;;;;;;;;6208757;28;20038;-81
2021/04/19 00:28:23;;;;;;;10.65;8.40;;;4.90;99.90;;;;;;6211586;28;20030;-80
2021/04/19 00:31:24;;;;;;;11.30;7.93;;;4.40;99.90;;;;;;6196747;28;20030;-81
2021/04/19 00:34:24;;;;;;;10.25;7.82;;;4.30;99.90;;;;;;6187672;28;20041;-79
2021/04/19 00:37:25;;;;;;;11.57;8.02;;;4.50;99.90;;;;;;6179082;28;20440;-80
2021/04/19 00:40:26;;;;;;;8.52;7.63;;;4.30;99.90;;;;;;6196041;28;20034;-79
2021/04/19 00:43:27;;;;;;;11.48;7.22;;;;;;;;;;6213623;28;20516;-79
2021/04/19 00:46:28;;;;;;;10.70;7.65;;;;;;;;;;6217865;28;20025;-80
2021/04/19 00:49:29;;;;;;;10.55;7.45;;;;;;;;;;6211851;28;20062;-81
2021/04/19 00:52:30;;;;;;;9.90;7.45;;;4.50;99.90;;;;;;6223794;28;20034;-79
2021/04/19 00:55:31;;;;;;;11.32;8.35;;;;;;;;;;6209522;28;20042;-79
2021/04/19 00:58:33;;;;;;;10.68;7.97;;;4.10;99.90;;;;;;6195036;28;20037;-81
2021/04/19 01:01:34;;;;;;;9.15;7.40;;;;;;;;;;6205509;28;20191;-79
2021/04/19 01:04:35;;;;;;;10.85;7.63;;;;;;;;;;6196479;28;20744;-79
2021/04/19 01:07:35;;;;;;;9.30;6.95;;;4.20;99.90;;;;;;6217021;28;20076;-81
2021/04/19 01:10:36;;;;;;;9.25;7.53;;;4.20;99.90;;;;;;6218163;28;20037;-79
2021/04/19 01:13:37;;;;;;;9.73;7.88;;;5.10;99.90;;;;;;6218278;28;20056;-80
2021/04/19 01:16:37;;;;;;;12.00;8.65;;;4.40;99.90;;;;;;6218425;28;20310;-81
2021/04/19 01:19:38;;;;;;;12.57;9.20;;;4.00;99.90;;;;;;6201627;28;20095;-80
2021/04/19 01:22:39;;;;;;;13.18;8.10;;;4.50;99.90;;;;;;6217889;28;20487;-81
2021/04/19 01:25:39;;;;;;;12.77;8.95;;;4.40;99.90;;;;;;6201328;28;20107;-80
2021/04/19 01:28:40;;;;;;;11.07;8.32;;;4.20;99.90;;;;;;6194657;28;20117;-80
2021/04/19 01:31:40;;;;;;;11.25;7.72;;;4.40;99.90;;;;;;6201745;28;20026;-80
2021/04/19 01:34:41;;;;;;;12.75;8.00;;;4.60;99.90;;;;;;6197442;28;20037;-80
2021/04/19 01:37:42;;;;;;;12.45;8.15;;;4.10;99.90;;;;;;6193727;28;20085;-79
2021/04/19 01:40:42;;;;;;;12.65;8.13;;;4.10;99.90;;;;;;6194373;28;20030;-81
2021/04/19 01:43:43;;;;;;;13.23;8.50;;;4.50;99.90;;;;;;6193790;28;20058;-79
2021/04/19 01:46:43;;;;;;;12.20;8.00;;;4.20;99.90;;;;;;6209545;28;20033;-79
2021/04/19 01:49:44;;;;;;;12.35;8.05;;;3.90;99.90;;;;;;6209870;28;20030;-79
2021/04/19 01:52:45;;;;;;;14.65;9.25;;;4.20;99.90;;;;;;6203464;28;20037;-79
2021/04/19 01:55:46;;;;;;;13.65;8.18;;;3.80;99.90;;;;;;6193107;28;20030;-78
2021/04/19 01:58:46;;;;;;;11.75;8.02;;;3.90;99.90;;;;;;6192717;28;20038;-80
2021/04/19 02:02:02;;;;;;;12.15;8.52;;;4.40;99.90;;;;;;6192906;28;20526;-79
2021/04/19 02:05:06;;;;;;;10.10;7.97;;;3.40;99.90;;;;;;6194515;28;20034;-79
2021/04/19 02:08:15;;;;;;;11.70;8.73;;;3.40;99.90;;;;;;6194291;28;20030;-80
2021/04/19 02:11:58;;;;;;;10.55;7.93;;;3.40;99.90;;;;;;6192684;28;20122;-81
2021/04/19 02:15:14;;;;;;;9.80;7.95;;;3.70;99.90;;;;;;6190670;28;20053;-80
2021/04/19 02:18:19;;;;;;;10.85;8.07;;;3.50;99.90;;;;;;6193019;28;20653;-79
2021/04/19 02:21:35;;;;;;;10.20;8.32;;;3.30;99.90;;;;;;6192935;28;20106;-79
2021/04/19 02:24:40;;;;;;;10.07;7.70;;;3.50;99.90;;;;;;6193095;28;20034;-79
2021/04/19 02:27:43;;;;;;;9.55;7.45;;;3.40;99.90;;;;;;6192620;28;20036;-78
2021/04/19 02:30:46;;;;;;;13.38;9.00;;;3.50;99.90;;;;;;6192821;28;20062;-81
2021/04/19 02:33:47;;;;;;;14.52;9.15;;;2.90;99.90;;;;;;6192459;28;20533;-79
2021/04/19 02:36:50;;;;;;;13.15;8.27;;;3.80;99.90;;;;;;6208307;28;20080;-79
2021/04/19 02:39:50;;;;;;;13.43;8.07;;;3.10;99.90;;;;;;6208508;28;20054;-80
2021/04/19 02:42:51;;;;;;;11.02;8.38;;;4.00;99.90;;;;;;6176845;28;20061;-79
2021/04/19 02:45:52;;;;;;;11.73;8.30;;;3.00;99.90;;;;;;6192457;28;20466;-79
2021/04/19 02:48:53;;;;;;;12.30;9.20;;;2.90;99.90;;;;;;6192264;28;20113;-79
2021/04/19 02:51:54;;;;;;;10.98;8.50;;;2.90;99.90;;;;;;6192273;28;20038;-79
2021/04/19 02:54:54;;;;;;;11.25;7.88;;;2.80;99.90;;;;;;6192489;28;20034;-79
2021/04/19 02:58:03;;;;;;;13.38;8.73;;;2.70;99.90;;;;;;6192319;28;20139;-79
2021/04/19 03:01:04;;;;;;;12.07;7.78;;;2.80;99.90;;;;;;6176405;28;20049;-80
2021/04/19 03:04:11;;;;;;;11.98;8.25;;;3.00;99.90;;;;;;6178962;28;20034;-79
2021/04/19 03:07:12;;;;;;;11.95;8.23;;;;;;;;;;6181457;28;20384;-79
2021/04/19 03:10:16;;;;;;;12.13;8.85;;;2.50;99.90;;;;;;6198182;28;20046;-80
2021/04/19 03:13:18;;;;;;;14.23;8.65;;;4.10;99.90;;;;;;6196537;28;20034;-79
2021/04/19 03:16:23;;;;;;;12.27;8.80;;;3.30;99.90;;;;;;6196937;28;20093;-79
2021/04/19 03:19:24;;;;;;;17.40;11.57;;;2.40;99.90;;;;;;6197116;28;20469;-79
2021/04/19 03:22:25;;;;;;;15.93;10.10;;;2.70;99.90;;;;;;6164651;28;20101;-79
2021/04/19 03:25:26;;;;;;;11.90;9.90;;;2.80;99.90;;;;;;6164688;28;20471;-78
2021/04/19 03:28:26;;;;;;;16.02;11.75;;;2.40;99.90;;;;;;6196281;28;20034;-78
2021/04/19 03:31:34;;;;;;;13.10;9.52;;;2.10;99.90;;;;;;6196825;28;20127;-80
2021/04/19 03:34:36;;;;;;;13.93;9.88;;;2.90;99.90;;;;;;6193371;28;20045;-79
2021/04/19 03:37:37;;;;;;;11.77;8.52;;;2.20;99.90;;;;;;6181407;28;20039;-79
2021/04/19 03:40:38;;;;;;;13.13;9.23;;;2.60;99.90;;;;;;6196267;28;20639;-79
2021/04/19 03:43:38;;;;;;;24.50;12.95;;;2.90;99.90;;;;;;6216353;28;20049;-81
2021/04/19 03:46:40;;;;;;;22.95;12.55;;;2.50;99.90;;;;;;6203003;28;20038;-80
2021/04/19 03:49:46;;;;;;;36.60;18.00;;;2.60;99.90;;;;;;6197063;28;20381;-80
2021/04/19 03:52:48;;;;;;;18.10;11.93;;;2.20;99.90;;;;;;6197254;28;20029;-80
2021/04/19 03:55:49;;;;;;;24.13;13.18;;;3.00;99.90;;;;;;6203653;28;20034;-79
2021/04/19 03:58:50;;;;;;;33.33;16.23;;;2.40;99.90;;;;;;6220001;28;20033;-81
2021/04/19 04:01:51;;;;;;;19.92;11.80;;;2.40;99.90;;;;;;6219568;28;20046;-79
2021/04/19 04:04:52;;;;;;;19.38;10.50;;;;;;;;;;6219585;28;20038;-79
2021/04/19 04:07:52;;;;;;;19.17;11.52;;;2.40;99.90;;;;;;6206982;28;20038;-78
2021/04/19 04:10:56;;;;;;;23.67;14.45;;;2.70;99.90;;;;;;6196035;28;20038;-79
2021/04/19 04:13:56;;;;;;;27.20;14.48;;;2.40;99.90;;;;;;6195093;28;20382;-79
2021/04/19 04:16:57;;;;;;;14.93;10.38;;;2.80;99.90;;;;;;6195770;28;20065;-79
2021/04/19 04:19:57;;;;;;;50.10;23.10;;;3.90;99.90;;;;;;6195535;28;20038;-79
2021/04/19 04:22:58;;;;;;;17.83;11.30;;;3.00;99.90;;;;;;6199264;28;20053;-79
2021/04/19 04:25:59;;;;;;;56.40;28.58;;;3.50;99.90;;;;;;6219321;28;20456;-79
2021/04/19 04:28:59;;;;;;;17.23;11.80;;;4.00;99.90;;;;;;6215623;28;20037;-79
2021/04/19 04:32:00;;;;;;;44.17;21.85;;;;;;;;;;6203153;28;20150;-82
2021/04/19 04:35:01;;;;;;;15.50;10.73;;;2.10;99.90;;;;;;6208239;28;20539;-86
2021/04/19 04:38:01;;;;;;;18.13;11.98;;;4.50;99.90;;;;;;6206985;28;20077;-86
2021/04/19 04:41:02;;;;;;;53.08;27.42;;;;;;;;;;6203787;28;20046;-86
2021/04/19 04:44:04;;;;;;;42.10;23.13;;;1.90;99.90;;;;;;6197754;28;20440;-87
2021/04/19 04:47:17;;;;;;;25.33;15.27;;;1.90;99.90;;;;;;6201632;28;20040;-85
2021/04/19 04:50:19;;;;;;;28.95;16.23;;;2.00;99.90;;;;;;6226134;28;20037;-83
2021/04/19 04:53:32;;;;;;;17.20;9.90;;;1.90;99.90;;;;;;6206007;28;20038;-82
2021/04/19 04:56:35;;;;;;;13.15;10.07;;;2.10;99.90;;;;;;6202248;28;20044;-84
2021/04/19 04:59:36;;;;;;;26.58;17.13;;;;;;;;;;6210505;28;20133;-82
2021/04/19 05:02:36;;;;;;;39.60;23.27;;;2.30;99.90;;;;;;6203395;28;20039;-82
2021/04/19 05:05:39;;;;;;;23.30;15.13;;;2.30;99.90;;;;;;6198396;28;20022;-82
2021/04/19 05:08:40;;;;;;;83.82;38.47;;;3.10;99.90;;;;;;6209728;28;20037;-86
2021/04/19 05:11:44;;;;;;;16.77;11.75;;;3.00;99.90;;;;;;6194798;28;20038;-81
2021/04/19 05:15:01;;;;;;;29.05;18.20;;;2.60;99.90;;;;;;6207387;28;20038;-81
2021/04/19 05:18:02;;;;;;;27.00;16.13;;;;;;;;;;6199700;28;20124;-82
2021/04/19 05:21:03;;;;;;;111.13;55.42;;;2.60;99.90;;;;;;6207234;28;20038;-81
2021/04/19 05:24:03;;;;;;;30.92;21.67;;;2.50;99.90;;;;;;6204642;28;20404;-82
2021/04/19 05:27:04;;;;;;;37.20;24.67;;;2.40;99.90;;;;;;6201559;28;20069;-83
2021/04/19 05:30:06;;;;;;;17.38;13.00;;;2.40;99.90;;;;;;6212248;28;20057;-82
2021/04/19 05:33:06;;;;;;;22.95;18.77;;;2.70;99.90;;;;;;6217673;28;20048;-82
2021/04/19 05:36:13;;;;;;;18.50;12.13;;;4.50;99.90;;;;;;6208347;28;20058;-87
2021/04/19 05:39:14;;;;;;;26.73;19.77;;;2.70;99.90;;;;;;6161939;28;20034;-87
2021/04/19 05:42:21;;;;;;;18.20;11.25;;;3.40;99.90;;;;;;6204439;28;20060;-85
2021/04/19 05:45:27;;;;;;;17.98;12.55;;;3.80;99.90;;;;;;6195890;28;20034;-92
2021/04/19 05:48:28;;;;;;;15.18;11.38;;;;;;;;;;6195134;28;20061;-86
2021/04/19 05:51:34;;;;;;;17.20;13.25;;;4.00;99.90;;;;;;6193969;28;20034;-88
2021/04/19 05:54:35;;;;;;;18.25;12.18;;;3.90;99.90;;;;;;6162770;28;20026;-87
2021/04/19 05:57:51;;;;;;;17.30;11.93;;;;;;;;;;6194823;28;20112;-88
2021/04/19 06:00:57;;;;;;;15.43;10.95;;;4.20;99.90;;;;;;6204178;28;20523;-89
2021/04/19 06:04:26;;;;;;;15.23;10.45;;;4.20;99.90;;;;;;6177885;28;20031;-84
2021/04/19 06:07:32;;;;;;;18.20;11.90;;;4.20;99.90;;;;;;6210203;28;20026;-83
2021/04/19 06:11:04;;;;;;;16.98;13.90;;;4.10;99.90;;;;;;6194921;28;20469;-83
2021/04/19 06:14:04;;;;;;;15.60;11.63;;;4.10;99.90;;;;;;6193659;28;20038;-81
2021/04/19 06:17:05;;;;;;;14.57;11.45;;;4.80;99.90;;;;;;6177117;28;20033;-80
2021/04/19 06:20:07;;;;;;;17.88;12.10;;;6.40;99.90;;;;;;6177142;28;20040;-84
2021/04/19 06:23:08;;;;;;;17.50;11.63;;;4.50;99.90;;;;;;6193215;28;20053;-85
2021/04/19 06:26:09;;;;;;;14.48;10.95;;;4.40;99.90;;;;;;6177421;28;20026;-83
2021/04/19 06:29:11;;;;;;;19.33;12.38;;;4.70;99.90;;;;;;6198013;28;20034;-82
2021/04/19 06:32:12;;;;;;;17.90;12.68;;;4.60;99.90;;;;;;6197069;28;20091;-81
2021/04/19 06:35:14;;;;;;;18.75;12.70;;;4.70;99.90;;;;;;6199080;28;20030;-83
2021/04/19 06:38:15;;;;;;;18.65;12.20;;;4.80;99.90;;;;;;6178623;28;20461;-82
2021/04/19 06:41:15;;;;;;;17.80;11.65;;;4.90;99.90;;;;;;6183601;28;20176;-83
2021/04/19 06:44:16;;;;;;;17.30;11.98;;;5.10;99.90;;;;;;6221767;28;20026;-83
2021/04/19 06:47:17;;;;;;;15.75;10.30;;;5.50;99.90;;;;;;6221829;28;20076;-85
2021/04/19 06:50:17;;;;;;;14.32;10.45;;;6.40;99.90;;;;;;6214141;28;20057;-84
2021/04/19 06:53:18;;;;;;;16.15;11.57;;;5.60;98.70;;;;;;6192423;28;20026;-83
2021/04/19 06:56:27;;;;;;;14.15;10.27;;;6.10;99.10;;;;;;6221366;28;20476;-82
2021/04/19 06:59:30;;;;;;;13.93;11.15;;;6.50;99.20;;;;;;6210232;28;20057;-83
2021/04/19 07:02:33;;;;;;;11.98;10.05;;;6.50;99.90;;;;;;6216527;28;20042;-84
2021/04/19 07:05:34;;;;;;;13.60;9.27;;;8.30;97.30;;;;;;6201161;28;20025;-85
2021/04/19 07:08:40;;;;;;;13.45;9.70;;;6.80;96.00;;;;;;6205608;28;20045;-82
2021/04/19 07:11:41;;;;;;;14.50;9.88;;;6.90;99.90;;;;;;6204745;28;20176;-83
2021/04/19 07:14:41;;;;;;;15.27;9.50;;;7.00;99.90;;;;;;6205736;28;20404;-83
2021/04/19 07:17:43;;;;;;;15.75;10.40;;;7.00;99.90;;;;;;6191796;28;20034;-82
2021/04/19 07:20:44;;;;;;;16.38;11.55;;;7.10;99.90;;;;;;6205140;28;20034;-83
2021/04/19 07:23:45;;;;;;;14.02;11.43;;;7.80;96.90;;;;;;6204829;28;20396;-83
2021/04/19 07:26:48;;;;;;;13.90;10.05;;;7.00;97.40;;;;;;6220986;28;20034;-84
2021/04/19 07:29:49;;;;;;;13.55;10.15;;;6.80;99.90;;;;;;6216368;28;20032;-83
2021/04/19 07:32:50;;;;;;;18.00;13.63;;;;;;;;;;6216317;28;20124;-83
2021/04/19 07:35:50;;;;;;;19.17;15.68;;;6.90;99.90;;;;;;6220516;28;20026;-85
2021/04/19 07:38:52;;;;;;;17.30;14.05;;;8.40;99.90;;;;;;6220306;28;20465;-84
2021/04/19 07:41:55;;;;;;;14.25;10.90;;;7.90;97.80;;;;;;6206456;28;20412;-85
2021/04/19 07:44:56;;;;;;;14.48;10.68;;;6.90;97.00;;;;;;6220011;28;20088;-85
2021/04/19 07:47:57;;;;;;;15.55;12.70;;;8.40;97.60;;;;;;6192465;28;20413;-83
2021/04/19 07:50:57;;;;;;;16.27;11.20;;;7.10;99.90;;;;;;6198412;28;20029;-83
2021/04/19 07:54:21;;;;;;;15.32;11.35;;;7.60;97.60;;;;;;6207791;28;20037;-83
2021/04/19 07:57:22;;;;;;;15.63;11.15;;;7.30;96.70;;;;;;6211925;28;20079;-85
2021/04/19 08:00:26;;;;;;;14.05;10.95;;;7.60;98.00;;;;;;6187839;28;20030;-82
2021/04/19 08:03:35;;;;;;;15.80;11.50;;;8.10;98.70;;;;;;6220065;28;20034;-83
2021/04/19 08:06:36;;;;;;;22.67;11.55;;;7.50;98.30;;;;;;6187941;28;20030;-83
2021/04/19 08:09:36;;;;;;;16.55;11.27;;;7.30;98.10;;;;;;6219078;28;20045;-82
2021/04/19 08:12:39;;;;;;;15.32;10.82;;;7.20;97.90;;;;;;6219807;28;20089;-83
2021/04/19 08:15:41;;;;;;;14.93;10.77;;;8.50;98.80;;;;;;6212435;28;20038;-83
2021/04/19 08:18:42;;;;;;;;;;;8.10;97.90;;;;;;6187744;28;20823;-83
2021/04/19 08:21:42;;;;;;;17.30;13.05;;;7.50;98.10;;;;;;6219124;28;19909;-85
2021/04/19 08:24:43;;;;;;;15.98;10.05;;;7.60;97.80;;;;;;6211252;28;20189;-83
2021/04/19 08:28:05;;;;;;;18.00;11.18;;;7.60;96.80;;;;;;6187113;28;20041;-82
2021/04/19 08:31:05;;;;;;;14.90;10.48;;;7.70;96.20;;;;;;6203559;28;20025;-84
2021/04/19 08:34:06;;;;;;;15.25;11.98;;;8.00;97.70;;;;;;6203331;28;20037;-88
2021/04/19 08:37:10;;;;;;;16.60;12.35;;;8.30;98.20;;;;;;6203657;28;20150;-87
2021/04/19 08:40:12;;;;;;;17.75;11.85;;;7.80;97.90;;;;;;6205907;28;20376;-83
2021/04/19 08:43:19;;;;;;;16.58;12.85;;;7.70;99.30;;;;;;6191971;28;20092;-85
2021/04/19 08:46:20;;;;;;;15.32;11.55;;;8.10;98.40;;;;;;6202888;28;20061;-84
2021/04/19 08:49:20;;;;;;;17.02;15.23;;;7.90;99.90;;;;;;6211869;28;20087;-87
2021/04/19 08:52:22;;;;;;;15.07;13.25;;;7.80;99.20;;;;;;6213714;28;20034;-83
2021/04/19 08:55:23;;;;;;;14.80;12.18;;;7.80;98.80;;;;;;6210971;28;20443;-86
2021/04/19 08:58:24;;;;;;;15.35;10.43;;;7.80;99.30;;;;;;6204140;28;20032;-85
2021/04/19 09:01:25;;;;;;;16.08;11.85;;;8.30;99.90;;;;;;6209699;28;20033;-83
2021/04/19 09:04:25;;;;;;;16.27;11.48;;;8.10;99.90;;;;;;6213342;28;20567;-83
2021/04/19 09:07:30;;;;;;;14.05;10.27;;;8.60;99.90;;;;;;6186522;28;20030;-85
2021/04/19 09:10:55;;;;;;;13.25;9.93;;;8.20;99.90;;;;;;6211397;28;20061;-83
2021/04/19 09:14:06;;;;;;;14.52;11.43;;;8.20;99.90;;;;;;6197514;28;20136;-85
2021/04/19 09:17:06;;;;;;;14.85;10.70;;;8.90;99.90;;;;;;6186284;28;20029;-84
2021/04/19 09:20:10;;;;;;;13.65;10.45;;;8.50;99.90;;;;;;6205745;28;20030;-83
2021/04/19 09:23:28;;;;;;;15.77;10.98;;;8.80;99.90;;;;;;6185792;28;20107;-84
2021/04/19 09:26:47;;;;;;;17.45;11.68;;;8.70;99.60;;;;;;6217632;28;20068;-83
2021/04/19 09:29:48;;;;;;;16.02;11.05;;;8.70;99.90;;;;;;6220372;28;20105;-87
2021/04/19 09:33:05;;;;;;;15.30;11.90;;;9.00;99.90;;;;;;6191233;28;20376;-82
2021/04/19 09:36:05;;;;;;;15.40;12.38;;;9.40;99.50;;;;;;6214599;28;20029;-84
2021/04/19 09:39:06;;;;;;;13.82;10.38;;;8.90;99.90;;;;;;6201921;28;20037;-87
2021/04/19 09:42:07;;;;;;;15.10;11.50;;;8.90;99.90;;;;;;6217695;28;20107;-83
2021/04/19 09:45:08;;;;;;;13.52;10.40;;;8.90;99.50;;;;;;6185340;28;20030;-83
2021/04/19 09:48:27;;;;;;;12.82;10.60;;;8.80;98.00;;;;;;6201276;28;20030;-83
2021/04/19 09:51:38;;;;;;;15.45;11.27;;;9.70;99.30;;;;;;6213966;28;20117;-86
2021/04/19 09:54:39;;;;;;;15.15;10.88;;;8.60;98.10;;;;;;6201383;28;20026;-86
2021/04/19 09:57:39;;;;;;;15.88;10.77;;;9.00;99.80;;;;;;6201628;28;20029;-84
2021/04/19 10:00:40;;;;;;;14.18;10.75;;;9.30;99.60;;;;;;6204962;28;20041;-83
2021/04/19 10:03:41;;;;;;;14.68;11.20;;;8.80;99.70;;;;;;6201163;28;20495;-83
2021/04/19 10:06:43;;;;;;;14.65;10.95;;;8.70;99.90;;;;;;6185349;28;20026;-83
2021/04/19 10:09:45;;;;;;;14.73;10.80;;;;;;;;;;6217607;28;20034;-85
2021/04/19 10:12:46;;;;;;;16.10;11.73;;;;;;;;;;6216708;28;20034;-85
2021/04/19 10:15:47;;;;;;;17.55;13.38;;;8.90;99.90;;;;;;6206645;28;20062;-84
2021/04/19 10:18:52;;;;;;;16.92;11.27;;;8.80;99.90;;;;;;6192769;28;20034;-83
2021/04/19 10:22:04;;;;;;;13.98;10.35;;;9.00;98.00;;;;;;6207094;28;20102;-84
2021/04/19 10:25:05;;;;;;;16.23;11.00;;;9.10;99.90;;;;;;6195328;28;20030;-86
2021/04/19 10:28:05;;;;;;;18.52;10.93;;;9.20;99.90;;;;;;6200847;28;20112;-86
2021/04/19 10:31:10;;;;;;;18.73;12.45;;;9.00;99.90;;;;;;6212366;28;20026;-85
2021/04/19 10:34:12;;;;;;;13.60;10.38;;;9.70;98.40;;;;;;6208717;28;20045;-86
2021/04/19 10:37:12;;;;;;;16.35;11.80;;;9.40;97.90;;;;;;6200820;28;20069;-86
2021/04/19 10:40:13;;;;;;;14.50;11.10;;;9.50;98.00;;;;;;6215315;28;20038;-83
2021/04/19 10:43:14;;;;;;;18.63;12.40;;;9.50;97.80;;;;;;6201498;28;20069;-84
2021/04/19 10:46:29;;;;;;;17.80;13.02;;;9.50;97.90;;;;;;6192377;28;20481;-85
2021/04/19 10:49:29;;;;;;;16.55;12.77;;;10.00;98.70;;;;;;6211227;28;20464;-83
2021/04/19 10:52:30;;;;;;;17.05;13.27;;;10.40;99.00;;;;;;6202206;28;20028;-85
2021/04/19 10:55:30;;;;;;;19.23;13.27;;;10.30;99.00;;;;;;6216766;28;20037;-83
2021/04/19 10:58:32;;;;;;;17.17;12.88;;;10.30;98.50;;;;;;6213191;28;20076;-83
2021/04/19 11:01:37;;;;;;;18.02;13.00;;;10.60;99.90;;;;;;6202404;28;20030;-86
2021/04/19 11:04:38;;;;;;;15.98;12.85;;;11.00;96.40;;;;;;6198975;28;20034;-83
2021/04/19 11:07:43;;;;;;;17.40;13.02;;;11.20;97.80;;;;;;6184155;28;20512;-83
2021/04/19 11:10:43;;;;;;;21.48;13.88;;;11.20;96.80;;;;;;6206884;28;20030;-83
2021/04/19 11:13:44;;;;;;;19.77;14.35;;;11.40;97.10;;;;;;6185252;28;20384;-84
2021/04/19 11:16:53;;;;;;;17.80;12.63;;;11.40;96.10;;;;;;6216719;28;20034;-84
2021/04/19 11:19:54;;;;;;;18.73;13.52;;;11.60;95.20;;;;;;6201214;28;20461;-82
2021/04/19 11:23:01;;;;;;;19.52;14.13;;;10.90;99.90;;;;;;6216678;28;20045;-83
2021/04/19 11:26:08;;;;;;;16.25;13.07;;;11.10;94.00;;;;;;6205246;28;20041;-83
2021/04/19 11:29:09;;;;;;;17.80;13.23;;;11.00;95.60;;;;;;6205383;28;20061;-83
2021/04/19 11:32:29;;;;;;;19.50;13.93;;;11.10;96.60;;;;;;6189236;28;20527;-84
2021/04/19 11:35:37;;;;;;;20.25;14.95;;;11.20;96.60;;;;;;6222016;28;20034;-84
2021/04/19 11:38:38;;;;;;;19.50;14.55;;;11.10;99.90;;;;;;6222890;28;20029;-83
2021/04/19 11:41:39;;;;;;;19.13;12.75;;;11.30;95.90;;;;;;6206140;28;20497;-83
2021/04/19 11:44:47;;;;;;;20.58;14.02;;;11.10;95.10;;;;;;6197411;28;20030;-86
2021/04/19 11:47:48;;;;;;;16.38;12.65;;;11.10;99.90;;;;;;6216406;28;20372;-82
2021/04/19 11:50:49;;;;;;;18.35;14.70;;;11.20;96.10;;;;;;6212220;28;20121;-83
2021/04/19 11:53:49;;;;;;;19.52;14.30;;;11.20;95.80;;;;;;6196591;28;20034;-82
2021/04/19 11:56:50;;;;;;;17.95;13.90;;;11.30;96.50;;;;;;6214563;28;20037;-82
2021/04/19 11:59:51;;;;;;;17.67;13.95;;;11.30;96.30;;;;;;6217924;28;20104;-82
2021/04/19 12:02:52;;;;;;;19.20;13.20;;;11.70;96.00;;;;;;6219596;28;20034;-82
2021/04/19 12:05:53;;;;;;;18.13;14.55;;;11.40;95.80;;;;;;6220145;28;20038;-82
2021/04/19 12:08:53;;;;;;;18.48;14.25;;;11.50;95.40;;;;;;6202434;28;20029;-82
2021/04/19 12:11:54;;;;;;;19.73;12.35;;;11.60;95.10;;;;;;6219552;28;20038;-82
2021/04/19 12:14:55;;;;;;;17.58;13.13;;;11.80;94.70;;;;;;6219750;28;20033;-82
2021/04/19 12:17:55;;;;;;;20.02;13.20;;;11.80;95.30;;;;;;6219477;28;20080;-82
2021/04/19 12:20:56;;;;;;;17.70;12.50;;;11.80;94.70;;;;;;6204022;28;20036;-82
2021/04/19 12:23:57;;;;;;;18.63;12.23;;;11.70;94.60;;;;;;6187813;28;20026;-82
2021/04/19 12:26:57;;;;;;;20.60;12.32;;;11.80;95.10;;;;;;6219440;28;20395;-83
2021/04/19 12:29:58;;;;;;;18.35;12.18;;;11.80;94.70;;;;;;6219280;28;20045;-82
2021/04/19 12:32:59;;;;;;;18.25;12.55;;;11.90;99.90;;;;;;6218850;28;20034;-82
2021/04/19 12:36:00;;;;;;;19.35;14.15;;;11.70;99.90;;;;;;6219244;28;20040;-83
2021/04/19 12:39:02;;;;;;;17.95;13.82;;;11.70;94.50;;;;;;6206539;28;20018;-82
2021/04/19 12:42:02;;;;;;;17.63;13.27;;;11.80;95.00;;;;;;6218784;28;20077;-82
2021/04/19 12:45:03;;;;;;;17.17;13.27;;;11.90;99.90;;;;;;6186780;28;20044;-82
2021/04/19 12:48:05;;;;;;;17.60;12.05;;;11.80;99.90;;;;;;6190287;28;20465;-84
2021/04/19 12:51:06;;;;;;;14.43;11.83;;;12.30;93.60;;;;;;6209990;28;20037;-84
2021/04/19 12:54:07;;;;;;;12.60;10.38;;;11.80;99.90;;;;;;6187119;28;20029;-84
2021/04/19 12:57:08;;;;;;;14.80;11.27;;;12.00;99.90;;;;;;6207582;28;20018;-83
2021/04/19 13:00:18;;;;;;;16.35;11.90;;;12.20;98.10;;;;;;6196357;28;20149;-84
2021/04/19 13:03:19;;;;;;;15.25;12.20;;;;;;;;;;6191052;28;20037;-86
2021/04/19 13:06:20;;;;;;;16.35;11.60;;;12.50;99.90;;;;;;6203789;28;20372;-83
2021/04/19 13:09:21;;;;;;;15.45;11.60;;;12.70;99.90;;;;;;6186790;28;20033;-84
2021/04/19 13:12:22;;;;;;;15.40;12.10;;;;;;;;;;6187162;28;20033;-82
2021/04/19 13:15:23;;;;;;;14.20;11.93;;;13.20;95.30;;;;;;6219616;28;20109;-82
2021/04/19 13:18:23;;;;;;;21.25;12.60;;;13.20;96.70;;;;;;6235291;28;20107;-81
2021/04/19 13:21:24;;;;;;;16.08;12.13;;;13.20;96.30;;;;;;6202299;28;20092;-82
2021/04/19 13:24:25;;;;;;;15.07;11.70;;;13.20;97.00;;;;;;6202108;28;20121;-82
2021/04/19 13:27:25;;;;;;;16.30;11.52;;;12.90;96.00;;;;;;6215743;28;20033;-82
2021/04/19 13:30:26;;;;;;;18.08;13.02;;;12.90;96.90;;;;;;6184747;28;20109;-83
2021/04/19 13:33:28;;;;;;;16.45;11.93;;;13.30;90.90;;;;;;6176910;28;20034;-82
2021/04/19 13:36:28;;;;;;;15.90;11.80;;;13.00;91.30;;;;;;6201040;28;20036;-82
2021/04/19 13:39:30;;;;;;;17.88;11.98;;;13.00;90.70;;;;;;6201946;28;20361;-82
2021/04/19 13:42:31;;;;;;;16.83;12.05;;;12.80;90.60;;;;;;6217139;28;20049;-83
2021/04/19 13:45:31;;;;;;;11.60;10.40;;;12.90;92.20;;;;;;6216789;28;20036;-83
2021/04/19 13:48:32;;;;;;;15.90;11.90;;;13.00;91.90;;;;;;6200722;28;20084;-84
2021/04/19 13:51:36;;;;;;;14.45;11.70;;;12.80;92.20;;;;;;6217376;28;20037;-83
2021/04/19 13:54:36;;;;;;;14.57;11.32;;;12.80;92.50;;;;;;6202791;28;20022;-83
2021/04/19 13:57:39;;;;;;;16.15;11.73;;;;;;;;;;6201943;28;20409;-84
2021/04/19 14:00:39;;;;;;;17.25;13.25;;;12.80;89.30;;;;;;6200495;28;20541;-84
2021/04/19 14:03:40;;;;;;;17.23;12.55;;;13.00;90.50;;;;;;6169250;28;20048;-84
2021/04/19 14:06:40;;;;;;;18.63;15.48;;;12.80;91.00;;;;;;6184806;28;20109;-84
2021/04/19 14:09:41;;;;;;;15.07;10.68;;;12.80;91.10;;;;;;6216916;28;20456;-85
2021/04/19 14:12:42;;;;;;;16.13;12.90;;;13.00;89.30;;;;;;6217179;28;20083;-84
2021/04/19 14:15:43;;;;;;;13.50;10.80;;;13.00;90.30;;;;;;6216683;28;20038;-83
2021/04/19 14:18:44;;;;;;;13.98;10.43;;;13.20;89.70;;;;;;6216051;28;20030;-84
2021/04/19 14:21:45;;;;;;;28.60;16.42;;;13.20;88.70;;;;;;6217552;28;20041;-84
2021/04/19 14:24:45;;;;;;;15.18;11.52;;;13.50;90.20;;;;;;6207862;28;20033;-84
2021/04/19 14:27:46;;;;;;;13.10;10.13;;;13.30;90.40;;;;;;6191395;28;20060;-83
2021/04/19 14:30:46;;;;;;;11.20;9.45;;;13.30;90.20;;;;;;6212217;28;20029;-83
2021/04/19 14:33:47;;;;;;;12.27;10.05;;;13.20;90.70;;;;;;6216935;28;20029;-83
2021/04/19 14:36:48;;;;;;;13.32;10.02;;;13.20;90.60;;;;;;6218109;28;20034;-83
2021/04/19 14:39:49;;;;;;;15.15;9.63;;;;;;;;;;6206348;28;20456;-83
2021/04/19 14:42:52;;;;;;;13.75;8.80;;;13.00;97.90;;;;;;6195225;28;20046;-85
2021/04/19 14:45:53;;;;;;;11.63;9.57;;;11.60;87.30;;;;;;6192344;28;20461;-82
2021/04/19 14:48:54;;;;;;;13.40;9.13;;;13.00;90.90;;;;;;6176873;28;20046;-84
2021/04/19 14:51:55;;;;;;;11.52;8.57;;;12.70;96.30;;;;;;6172519;28;20027;-85
2021/04/19 14:54:55;;;;;;;11.85;9.20;;;12.60;90.70;;;;;;6192965;28;20381;-86
2021/04/19 14:57:56;;;;;;;11.05;8.48;;;12.40;98.90;;;;;;6192396;28;20034;-83
2021/04/19 15:00:57;;;;;;;11.65;8.55;;;12.30;91.80;;;;;;6180857;28;20081;-84
2021/04/19 15:03:59;;;;;;;10.52;8.23;;;12.20;91.30;;;;;;6196832;28;20501;-83
2021/04/19 15:06:59;;;;;;;10.47;8.13;;;12.40;91.60;;;;;;6197426;28;20080;-84
2021/04/19 15:10:00;;;;;;;12.32;8.32;;;12.00;99.10;;;;;;6196778;28;20034;-83
2021/04/19 15:13:01;;;;;;;11.48;8.70;;;12.00;91.90;;;;;;6197581;28;20104;-83
2021/04/19 15:16:01;;;;;;;11.00;8.25;;;11.90;97.40;;;;;;6196777;28;20120;-81
2021/04/19 15:19:33;;;;;;;9.95;7.70;;;11.90;99.40;;;;;;6196919;28;20026;-82
2021/04/19 15:22:34;;;;;;;9.40;7.88;;;11.70;99.90;;;;;;6196068;28;20120;-83
2021/04/19 15:25:37;;;;;;;11.43;8.77;;;;;;;;;;6195922;28;20026;-83
2021/04/19 15:28:38;;;;;;;10.98;8.55;;;12.10;99.40;;;;;;6212075;28;20598;-83
2021/04/19 15:31:39;;;;;;;12.88;9.00;;;11.90;91.60;;;;;;6180361;28;20081;-84
2021/04/19 15:34:39;;;;;;;12.45;8.77;;;12.10;92.00;;;;;;6195547;28;20658;-82
2021/04/19 15:37:43;;;;;;;10.43;8.38;;;12.10;92.20;;;;;;6196281;28;20034;-85
2021/04/19 15:41:04;;;;;;;10.68;8.43;;;12.30;90.70;;;;;;6196237;28;20033;-83
2021/04/19 15:44:06;;;;;;;11.73;9.40;;;12.40;91.80;;;;;;6203387;28;20050;-84
2021/04/19 15:47:07;;;;;;;13.27;9.50;;;12.40;91.30;;;;;;6196669;28;20040;-84
2021/04/19 15:50:09;;;;;;;40.47;29.08;;;12.20;99.00;;;;;;6197975;28;20122;-83